Forside
METAR-TAF:

METAR-TAF

Lufthavne :

Yellowknife, Northwest Territories, Canada

Breddekreds: 62-28N, længdekreds: 114-27W, højde: 205 m

Aktuelle vejr

Denne rapport blev lavet for 22 minutter siden, kl. 07:00 UTC
Vind 6 kt fra nordvest
Temperatur -4°C
Fugtighed 74%
Tryk 1021 hPa
Sigt: 24.1 km
Spredte skyer i en højde af 4000 ft

METAR: CYZF 190700Z 31006KT 15SM SCT040 M04/M08 A3014 RMK SC4 SLP224

Tid: 01:22 (07:22 UTC)

Vejrudsigter

Denne rapport blev lavet for 1 time og 44 minutter siden, kl. 05:38 UTC
Foreløbig gælder fra 19 på 06 UTC til 20 på 06 UTC
Vind 10 kt fra nordnordvest
Sigt: 10 km
Spredte skyer i en højde af 2000 ft
Brudte skyer i en højde af 5000 ft
Midlertidig
fra 19 på 06 UTC til 20 på 06 UTC
Sigt: 6.4 km
Overskyet i en højde af 2000 ft
let snebyger
ændring
fra 19 på 17 UTC til 19 på 19 UTC
Vind 15 kt fra nordvest med vindstød på up til 25 kt

TAF: CYZF 190538Z 1906/2006 33010KT P6SM SCT020 BKN050 TEMPO 1906/2006 4SM -SHSN OVC020 BECMG 1917/1919 32015G25KT RMK NXT FCST BY 191200Z

Vejrobservationer og prognoser fra mere end 4000 lufthavne (METAR og TAF).

De gule og røde prikker repræsenterer de meteorologiske stationer.

Flyt musen over at se navnet på stationen.

Så klik over at se vejr observationer og prognoser.

At skifte det kort: Klik på de grønne knapper med et sort kors for at zoome ind; på den grønne knap med en bindestreg for at zoome ud; eller på de grønne pile for tilstødende kort.


METAR-TAF: